Terminal Aerodrome Forecast
Issued by NWS

Home | Current Version | Previous Version | Text Only | Print | Product List | Glossary On
Versions: 1 2 3 4 5 6 7 8 9 10 11 12 13 14 15
000
FTUS41 KCAR 141727 CCA
TAFFVE
TAF COR
KFVE 141727Z 1418/1518 19009G16KT P6SM VCSH SCT005 OVC015
      TEMPO 1418/1421 5SM -SHRA BKN005
     FM150700 22007KT P6SM BKN010
     FM151000 23007KT P6SM SCT020
     FM151500 26009KT P6SM BKN025=

USA.gov is the U.S. government's official web portal to all federal, state and local government web resources and services.